createdAt,value
2016-08-13T00:00:12.554Z,0
2016-08-13T00:01:12.471Z,0
2016-08-13T00:02:12.448Z,0
2016-08-13T00:03:12.154Z,0
2016-08-13T00:04:12.536Z,0
2016-08-13T00:05:12.278Z,0
2016-08-13T00:06:12.294Z,0
2016-08-13T00:07:11.495Z,0
2016-08-13T00:08:12.581Z,0
2016-08-13T00:09:10.711Z,0
2016-08-13T00:10:12.054Z,0
2016-08-13T00:11:11.722Z,0
2016-08-13T00:12:12.160Z,0
2016-08-13T00:13:11.949Z,0
2016-08-13T00:14:11.194Z,0
2016-08-13T00:15:11.344Z,0
2016-08-13T00:16:12.003Z,0
2016-08-13T00:17:11.754Z,0
2016-08-13T00:18:11.894Z,0
2016-08-13T00:19:11.683Z,0
2016-08-13T00:20:11.993Z,0
2016-08-13T00:21:12.174Z,0
2016-08-13T00:22:11.523Z,0
2016-08-13T00:23:11.753Z,0
2016-08-13T00:24:10.952Z,0
2016-08-13T00:25:10.051Z,0
2016-08-13T00:26:11.365Z,0
2016-08-13T00:27:11.548Z,0
2016-08-13T00:28:10.782Z,0
2016-08-13T00:29:10.546Z,0
2016-08-13T00:30:11.188Z,0
2016-08-13T00:31:11.112Z,0
2016-08-13T00:32:11.084Z,0
2016-08-13T00:33:10.534Z,0
2016-08-13T00:34:10.995Z,0
2016-08-13T00:35:10.929Z,0
2016-08-13T00:36:10.903Z,0
2016-08-13T00:37:10.162Z,0
2016-08-13T00:38:10.844Z,0
2016-08-13T00:39:10.752Z,0
2016-08-13T00:40:10.900Z,0
2016-08-13T00:41:09.975Z,0
2016-08-13T00:42:10.630Z,0
2016-08-13T00:43:10.596Z,0
2016-08-13T00:44:10.972Z,0
2016-08-13T00:45:10.494Z,0
2016-08-13T00:46:09.277Z,0
2016-08-13T00:47:10.623Z,0
2016-08-13T00:48:10.362Z,0
2016-08-13T00:49:09.616Z,0
2016-08-13T00:50:09.582Z,0
2016-08-13T00:51:10.418Z,0
2016-08-13T00:52:10.353Z,0
2016-08-13T00:53:10.178Z,0
2016-08-13T00:54:10.103Z,0
2016-08-13T00:55:09.362Z,0
2016-08-13T00:56:09.990Z,0
2016-08-13T00:57:08.547Z,0
2016-08-13T00:58:09.910Z,0
2016-08-13T00:59:09.903Z,0
2016-08-13T01:00:09.099Z,0
2016-08-13T01:01:10.040Z,0
2016-08-13T01:02:09.726Z,0
2016-08-13T01:03:09.683Z,0
2016-08-13T01:04:09.339Z,0
2016-08-13T01:05:10.004Z,0
2016-08-13T01:06:09.531Z,0
2016-08-13T01:07:09.544Z,0
2016-08-13T01:08:08.744Z,0
2016-08-13T01:09:07.993Z,0
2016-08-13T01:10:09.751Z,0
2016-08-13T01:11:08.623Z,0
2016-08-13T01:12:07.873Z,0
2016-08-13T01:13:08.021Z,0
2016-08-13T01:14:09.191Z,0
2016-08-13T01:15:09.405Z,0
2016-08-13T01:16:08.614Z,0
2016-08-13T01:17:07.659Z,0
2016-08-13T01:18:08.996Z,0
2016-08-13T01:19:09.378Z,0
2016-08-13T01:20:08.605Z,0
2016-08-13T01:21:08.858Z,0
2016-08-13T01:22:08.893Z,0
2016-08-13T01:23:08.768Z,0
2016-08-13T01:24:08.761Z,0
2016-08-13T01:25:08.690Z,0
2016-08-13T01:26:07.650Z,0
2016-08-13T01:27:07.894Z,0
2016-08-13T01:28:08.053Z,0
2016-08-13T01:29:08.509Z,0
2016-08-13T01:30:07.680Z,0
2016-08-13T01:31:08.452Z,0
2016-08-13T01:32:07.717Z,0
2016-08-13T01:33:07.818Z,0
2016-08-13T01:34:07.827Z,0
2016-08-13T01:35:07.728Z,0
2016-08-13T01:36:08.375Z,0
2016-08-13T01:37:06.959Z,0
2016-08-13T01:38:08.302Z,0
2016-08-13T01:39:08.243Z,0
2016-08-13T01:40:08.005Z,0
2016-08-13T01:41:08.355Z,0
2016-08-13T01:42:07.946Z,0
2016-08-13T01:43:07.875Z,0
2016-08-13T01:44:08.031Z,0
2016-08-13T01:45:07.274Z,0
2016-08-13T01:46:07.943Z,0
2016-08-13T01:47:07.915Z,0
2016-08-13T01:48:07.634Z,0
2016-08-13T01:49:08.000Z,0
2016-08-13T01:50:07.492Z,0
2016-08-13T01:51:08.098Z,0
2016-08-13T01:52:07.457Z,0
2016-08-13T01:53:06.724Z,0
2016-08-13T01:54:07.778Z,0
2016-08-13T01:55:07.513Z,0
2016-08-13T01:56:07.475Z,0
2016-08-13T01:57:07.424Z,0
2016-08-13T01:58:07.589Z,0
2016-08-13T01:59:05.935Z,0
2016-08-13T02:00:07.301Z,0
2016-08-13T02:01:07.054Z,0
2016-08-13T02:02:07.228Z,0
2016-08-13T02:03:07.155Z,0
2016-08-13T02:04:06.918Z,0
2016-08-13T02:05:06.883Z,0
2016-08-13T02:06:07.087Z,0
2016-08-13T02:07:06.274Z,0
2016-08-13T02:08:06.827Z,0
2016-08-13T02:09:06.887Z,0
2016-08-13T02:10:06.155Z,0
2016-08-13T02:11:05.189Z,0
2016-08-13T02:12:06.555Z,0
2016-08-13T02:13:05.832Z,0
2016-08-13T02:14:05.067Z,0
2016-08-13T02:15:04.748Z,0
2016-08-13T02:16:07.114Z,0
2016-08-13T02:17:06.347Z,0
2016-08-13T02:18:06.474Z,0
2016-08-13T02:19:05.735Z,0
2016-08-13T02:20:06.839Z,0
2016-08-13T02:21:06.554Z,0
2016-08-13T02:22:06.090Z,0
2016-08-13T02:23:06.251Z,0
2016-08-13T02:24:06.392Z,0
2016-08-13T02:25:05.995Z,0
2016-08-13T02:26:05.403Z,0
2016-08-13T02:27:05.163Z,0
2016-08-13T02:28:06.414Z,0
2016-08-13T02:29:05.314Z,0
2016-08-13T02:30:04.534Z,0
2016-08-13T02:31:06.693Z,0
2016-08-13T02:32:06.059Z,0
2016-08-13T02:33:05.825Z,0
2016-08-13T02:34:05.966Z,0
2016-08-13T02:35:06.355Z,0
2016-08-13T02:36:05.644Z,0
2016-08-13T02:37:05.614Z,0
2016-08-13T02:38:05.574Z,0
2016-08-13T02:39:04.623Z,0
2016-08-13T02:40:04.584Z,0
2016-08-13T02:41:05.814Z,0
2016-08-13T02:42:05.374Z,0
2016-08-13T02:43:05.562Z,0
2016-08-13T02:44:05.494Z,0
2016-08-13T02:45:03.881Z,0
2016-08-13T02:46:05.202Z,0
2016-08-13T02:47:04.273Z,0
2016-08-13T02:48:04.992Z,0
2016-08-13T02:49:04.894Z,0
2016-08-13T02:50:04.847Z,0
2016-08-13T02:51:04.772Z,0
2016-08-13T02:52:04.734Z,0
2016-08-13T02:53:05.084Z,0
2016-08-13T02:54:04.866Z,0
2016-08-13T02:55:04.617Z,0
2016-08-13T02:56:03.634Z,0
2016-08-13T02:57:04.512Z,0
2016-08-13T02:58:03.986Z,0
2016-08-13T02:59:04.424Z,0
2016-08-13T03:00:04.364Z,0
2016-08-13T03:01:04.334Z,0
2016-08-13T03:02:04.913Z,0
2016-08-13T03:03:04.844Z,0
2016-08-13T03:04:04.194Z,0
2016-08-13T03:05:04.135Z,0
2016-08-13T03:06:04.106Z,0
2016-08-13T03:07:03.343Z,0
2016-08-13T03:08:02.615Z,0
2016-08-13T03:09:03.254Z,0
2016-08-13T03:10:04.516Z,0
2016-08-13T03:11:03.861Z,0
2016-08-13T03:12:03.824Z,0
2016-08-13T03:13:03.963Z,0
2016-08-13T03:14:03.044Z,0
2016-08-13T03:15:03.893Z,0
2016-08-13T03:16:03.131Z,0
2016-08-13T03:17:03.811Z,0
2016-08-13T03:18:02.955Z,0
2016-08-13T03:19:03.683Z,0
2016-08-13T03:20:03.444Z,0
2016-08-13T03:21:03.414Z,0
2016-08-13T03:22:03.564Z,0
2016-08-13T03:23:02.813Z,0
2016-08-13T03:24:03.333Z,0
2016-08-13T03:25:03.221Z,0
2016-08-13T03:26:03.851Z,0
2016-08-13T03:27:03.112Z,0
2016-08-13T03:28:03.323Z,0
2016-08-13T03:29:02.534Z,0
2016-08-13T03:30:02.734Z,0
2016-08-13T03:31:03.365Z,0
2016-08-13T03:32:02.903Z,0
2016-08-13T03:33:02.583Z,0
2016-08-13T03:34:03.011Z,0
2016-08-13T03:35:03.004Z,0
2016-08-13T03:36:02.034Z,0
2016-08-13T03:37:03.081Z,0
2016-08-13T03:38:03.055Z,0
2016-08-13T03:39:02.635Z,0
2016-08-13T03:40:02.043Z,0
2016-08-13T03:41:02.699Z,0
2016-08-13T03:42:02.444Z,0
2016-08-13T03:43:01.711Z,0
2016-08-13T03:44:02.380Z,0
2016-08-13T03:45:02.313Z,0
2016-08-13T03:46:02.261Z,0
2016-08-13T03:47:01.781Z,0
2016-08-13T03:48:02.588Z,0
2016-08-13T03:49:01.839Z,0
2016-08-13T03:50:02.534Z,0
2016-08-13T03:51:02.244Z,0
2016-08-13T03:52:02.179Z,0
2016-08-13T03:53:01.935Z,0
2016-08-13T03:54:02.302Z,0
2016-08-13T03:55:02.254Z,0
2016-08-13T03:56:01.214Z,0
2016-08-13T03:57:01.135Z,0
2016-08-13T03:58:01.730Z,0
2016-08-13T03:59:02.079Z,0
2016-08-13T04:00:01.664Z,0
2016-08-13T04:01:01.776Z,0
2016-08-13T04:02:01.552Z,0
2016-08-13T04:03:01.884Z,0
2016-08-13T04:04:01.842Z,0
2016-08-13T04:05:01.389Z,0
2016-08-13T04:06:02.171Z,0
2016-08-13T04:07:01.529Z,0
2016-08-13T04:08:00.552Z,0
2016-08-13T04:09:01.196Z,0
2016-08-13T04:10:01.154Z,0
2016-08-13T04:11:01.794Z,0
2016-08-13T04:11:59.661Z,0
2016-08-13T04:13:01.223Z,0
2016-08-13T04:14:01.182Z,0
2016-08-13T04:15:01.133Z,0
2016-08-13T04:16:00.914Z,0
2016-08-13T04:17:01.083Z,0
2016-08-13T04:18:01.381Z,0
2016-08-13T04:19:00.742Z,0
2016-08-13T04:19:59.921Z,0
2016-08-13T04:20:59.493Z,0
2016-08-13T04:22:00.622Z,0
2016-08-13T04:22:59.892Z,0
2016-08-13T04:24:00.744Z,0
2016-08-13T04:25:00.709Z,0
2016-08-13T04:26:00.491Z,0
2016-08-13T04:27:00.594Z,0
2016-08-13T04:28:00.443Z,0
2016-08-13T04:28:59.602Z,0
2016-08-13T04:29:59.051Z,0
2016-08-13T04:31:00.194Z,0
2016-08-13T04:32:00.131Z,0
2016-08-13T04:33:00.091Z,0
2016-08-13T04:33:59.354Z,0
2016-08-13T04:35:00.077Z,0
2016-08-13T04:36:00.182Z,0
2016-08-13T04:37:00.339Z,5
2016-08-13T04:38:00.060Z,5
2016-08-13T04:38:59.123Z,5
2016-08-13T04:40:00.590Z,5
2016-08-13T04:40:59.980Z,5
2016-08-13T04:41:59.907Z,5
2016-08-13T04:42:58.956Z,5
2016-08-13T04:43:59.593Z,5
2016-08-13T04:44:59.556Z,5
2016-08-13T04:45:59.505Z,5
2016-08-13T04:46:59.524Z,5
2016-08-13T04:47:59.400Z,5
2016-08-13T04:48:59.573Z,5
2016-08-13T04:49:59.728Z,5
2016-08-13T04:50:59.454Z,5
2016-08-13T04:51:59.623Z,5
2016-08-13T04:52:59.800Z,5
2016-08-13T04:53:59.533Z,5
2016-08-13T04:54:59.366Z,5
2016-08-13T04:55:58.395Z,10
2016-08-13T04:56:58.988Z,10
2016-08-13T04:57:59.163Z,10
2016-08-13T04:58:58.911Z,10
2016-08-13T04:59:58.866Z,10
2016-08-13T05:00:59.222Z,10
2016-08-13T05:01:58.274Z,10
2016-08-13T05:02:58.922Z,10
2016-08-13T05:03:58.700Z,10
2016-08-13T05:04:58.854Z,10
2016-08-13T05:05:59.494Z,10
2016-08-13T05:06:59.166Z,10
2016-08-13T05:07:58.963Z,10
2016-08-13T05:08:58.454Z,10
2016-08-13T05:09:58.670Z,10
2016-08-13T05:10:57.662Z,10
2016-08-13T05:11:58.352Z,10
2016-08-13T05:12:57.070Z,10
2016-08-13T05:13:58.229Z,10
2016-08-13T05:14:58.168Z,15
2016-08-13T05:15:58.129Z,15
2016-08-13T05:16:58.088Z,15
2016-08-13T05:17:58.040Z,15
2016-08-13T05:18:57.975Z,15
2016-08-13T05:19:57.248Z,15
2016-08-13T05:20:57.904Z,15
2016-08-13T05:21:58.074Z,15
2016-08-13T05:22:57.373Z,15
2016-08-13T05:23:58.363Z,15
2016-08-13T05:24:57.756Z,15
2016-08-13T05:25:57.684Z,15
2016-08-13T05:26:57.828Z,15
2016-08-13T05:27:57.972Z,15
2016-08-13T05:28:57.552Z,15
2016-08-13T05:29:56.780Z,15
2016-08-13T05:30:57.442Z,15
2016-08-13T05:31:57.388Z,15
2016-08-13T05:32:56.392Z,15
2016-08-13T05:33:56.818Z,15
2016-08-13T05:34:57.279Z,15
2016-08-13T05:35:57.193Z,15
2016-08-13T05:36:57.157Z,20
2016-08-13T05:37:56.630Z,20
2016-08-13T05:38:56.364Z,20
2016-08-13T05:39:57.453Z,20
2016-08-13T05:40:56.284Z,20
2016-08-13T05:41:57.165Z,20
2016-08-13T05:42:56.894Z,20
2016-08-13T05:43:56.354Z,20
2016-08-13T05:44:56.993Z,20
2016-08-13T05:45:56.813Z,20
2016-08-13T05:46:56.632Z,25
2016-08-13T05:47:56.882Z,25
2016-08-13T05:48:57.206Z,25
2016-08-13T05:49:56.068Z,25
2016-08-13T05:50:56.698Z,25
2016-08-13T05:51:55.771Z,25
2016-08-13T05:52:56.623Z,25
2016-08-13T05:53:56.592Z,25
2016-08-13T05:54:56.374Z,25
2016-08-13T05:55:56.302Z,25
2016-08-13T05:56:56.254Z,30
2016-08-13T05:57:56.599Z,30
2016-08-13T05:58:56.334Z,30
2016-08-13T05:59:56.316Z,30
2016-08-13T06:00:56.253Z,30
2016-08-13T06:01:56.229Z,30
2016-08-13T06:02:55.966Z,30
2016-08-13T06:03:55.942Z,30
2016-08-13T06:04:55.914Z,30
2016-08-13T06:05:55.833Z,35
2016-08-13T06:06:55.781Z,35
2016-08-13T06:07:56.184Z,35
2016-08-13T06:08:55.946Z,35
2016-08-13T06:09:55.692Z,35
2016-08-13T06:10:54.250Z,35
2016-08-13T06:11:55.645Z,35
2016-08-13T06:12:55.033Z,35
2016-08-13T06:13:55.695Z,35
2016-08-13T06:14:55.434Z,35
2016-08-13T06:15:55.430Z,40
2016-08-13T06:16:55.258Z,40
2016-08-13T06:17:55.608Z,40
2016-08-13T06:18:54.557Z,40
2016-08-13T06:19:55.434Z,40
2016-08-13T06:20:55.559Z,40
2016-08-13T06:21:55.264Z,40
2016-08-13T06:22:54.815Z,40
2016-08-13T06:23:53.893Z,40
2016-08-13T06:24:53.721Z,45
2016-08-13T06:25:54.529Z,45
2016-08-13T06:26:54.217Z,45
2016-08-13T06:27:54.813Z,45
2016-08-13T06:28:55.012Z,45
2016-08-13T06:29:54.069Z,50
2016-08-13T06:30:55.030Z,50
2016-08-13T06:31:53.367Z,40
2016-08-13T06:32:54.836Z,50
2016-08-13T06:33:54.017Z,50
2016-08-13T06:34:54.247Z,50
2016-08-13T06:35:53.827Z,55
2016-08-13T06:36:54.461Z,50
2016-08-13T06:37:53.734Z,50
2016-08-13T06:38:52.514Z,45
2016-08-13T06:39:54.709Z,55
2016-08-13T06:40:54.314Z,55
2016-08-13T06:41:54.264Z,60
2016-08-13T06:42:54.655Z,60
2016-08-13T06:43:54.121Z,45
2016-08-13T06:44:54.313Z,60
2016-08-13T06:45:53.610Z,45
2016-08-13T06:46:54.035Z,50
2016-08-13T06:47:53.979Z,65
2016-08-13T06:48:53.951Z,65
2016-08-13T06:49:53.885Z,60
2016-08-13T06:50:53.791Z,60
2016-08-13T06:51:53.223Z,45
2016-08-13T06:52:54.094Z,65
2016-08-13T06:53:53.003Z,70
2016-08-13T06:54:53.985Z,70
2016-08-13T06:55:53.032Z,65
2016-08-13T06:56:53.679Z,75
2016-08-13T06:57:53.733Z,75
2016-08-13T06:58:53.602Z,70
2016-08-13T06:59:53.442Z,75
2016-08-13T07:00:52.916Z,90
2016-08-13T07:01:53.923Z,85
2016-08-13T07:02:53.247Z,60
2016-08-13T07:03:53.194Z,50
2016-08-13T07:04:53.451Z,60
2016-08-13T07:05:53.489Z,60
2016-08-13T07:06:53.663Z,55
2016-08-13T07:07:52.546Z,90
2016-08-13T07:08:53.015Z,75
2016-08-13T07:09:53.142Z,85
2016-08-13T07:10:53.091Z,75
2016-08-13T07:11:51.634Z,90
2016-08-13T07:12:53.028Z,85
2016-08-13T07:13:52.732Z,85
2016-08-13T07:14:52.013Z,60
2016-08-13T07:15:53.232Z,90
2016-08-13T07:16:52.187Z,90
2016-08-13T07:17:51.645Z,90
2016-08-13T07:18:52.075Z,80
2016-08-13T07:19:52.521Z,80
2016-08-13T07:20:52.418Z,65
2016-08-13T07:21:51.184Z,70
2016-08-13T07:22:52.354Z,100
2016-08-13T07:23:52.340Z,90
2016-08-13T07:24:52.321Z,90
2016-08-13T07:25:51.543Z,90
2016-08-13T07:26:50.765Z,90
2016-08-13T07:27:52.549Z,95
2016-08-13T07:28:52.113Z,100
2016-08-13T07:29:50.673Z,105
2016-08-13T07:30:52.014Z,105
2016-08-13T07:31:51.285Z,100
2016-08-13T07:32:51.427Z,100
2016-08-13T07:33:51.109Z,85
2016-08-13T07:34:51.815Z,85
2016-08-13T07:35:50.578Z,90
2016-08-13T07:36:49.654Z,90
2016-08-13T07:37:52.084Z,90
2016-08-13T07:38:51.903Z,95
2016-08-13T07:39:52.036Z,70
2016-08-13T07:40:51.261Z,80
2016-08-13T07:41:51.073Z,85
2016-08-13T07:42:51.456Z,90
2016-08-13T07:43:51.612Z,95
2016-08-13T07:44:51.531Z,80
2016-08-13T07:45:51.510Z,85
2016-08-13T07:46:51.301Z,85
2016-08-13T07:47:50.801Z,75
2016-08-13T07:48:50.476Z,75
2016-08-13T07:49:51.551Z,85
2016-08-13T07:50:51.082Z,95
2016-08-13T07:51:51.651Z,85
2016-08-13T07:52:51.002Z,100
2016-08-13T07:53:50.979Z,110
2016-08-13T07:54:50.456Z,115
2016-08-13T07:55:51.067Z,95
2016-08-13T07:56:50.844Z,95
2016-08-13T07:57:50.802Z,100
2016-08-13T07:58:51.196Z,90
2016-08-13T07:59:50.735Z,95
2016-08-13T08:00:50.852Z,90
2016-08-13T08:01:51.260Z,100
2016-08-13T08:02:51.004Z,110
2016-08-13T08:03:50.525Z,120
2016-08-13T08:04:50.685Z,115
2016-08-13T08:05:50.831Z,100
2016-08-13T08:06:49.682Z,100
2016-08-13T08:07:50.341Z,115
2016-08-13T08:08:48.888Z,110
2016-08-13T08:09:50.440Z,115
2016-08-13T08:10:50.199Z,125
2016-08-13T08:11:50.358Z,115
2016-08-13T08:12:50.313Z,110
2016-08-13T08:13:50.481Z,105
2016-08-13T08:14:50.039Z,85
2016-08-13T08:15:50.040Z,95
2016-08-13T08:16:48.725Z,85
2016-08-13T08:17:49.910Z,95
2016-08-13T08:18:49.853Z,100
2016-08-13T08:19:49.109Z,95
2016-08-13T08:20:49.303Z,95
2016-08-13T08:21:49.719Z,90
2016-08-13T08:22:49.202Z,85
2016-08-13T08:23:50.232Z,85
2016-08-13T08:24:49.843Z,85
2016-08-13T08:25:49.740Z,70
2016-08-13T08:26:49.485Z,80
2016-08-13T08:27:49.856Z,65
2016-08-13T08:28:48.218Z,65
2016-08-13T08:29:48.666Z,60
2016-08-13T08:30:49.331Z,65
2016-08-13T08:31:48.579Z,65
2016-08-13T08:32:48.531Z,70
2016-08-13T08:33:48.166Z,65
2016-08-13T08:34:49.458Z,50
2016-08-13T08:35:49.102Z,110
2016-08-13T08:36:49.470Z,115
2016-08-13T08:37:48.296Z,120
2016-08-13T08:38:47.609Z,120
2016-08-13T08:39:49.166Z,105
2016-08-13T08:40:48.974Z,90
2016-08-13T08:41:48.829Z,65
2016-08-13T08:42:49.454Z,70
2016-08-13T08:43:48.296Z,65
2016-08-13T08:44:49.350Z,65
2016-08-13T08:45:47.476Z,85
2016-08-13T08:46:47.442Z,100
2016-08-13T08:47:48.812Z,120
2016-08-13T08:48:48.266Z,140
2016-08-13T08:49:48.589Z,135
2016-08-13T08:50:48.412Z,130
2016-08-13T08:51:48.094Z,80
2016-08-13T08:52:47.860Z,130
2016-08-13T08:53:48.513Z,125
2016-08-13T08:54:48.286Z,120
2016-08-13T08:55:48.289Z,130
2016-08-13T08:56:48.390Z,130
2016-08-13T08:57:48.324Z,135
2016-08-13T08:58:48.085Z,135
2016-08-13T08:59:47.845Z,135
2016-08-13T09:00:48.222Z,135
2016-08-13T09:01:47.979Z,135
2016-08-13T09:02:47.450Z,135
2016-08-13T09:03:47.263Z,140
2016-08-13T09:04:47.847Z,135
2016-08-13T09:05:47.840Z,110
2016-08-13T09:06:47.759Z,140
2016-08-13T09:07:48.120Z,135
2016-08-13T09:08:46.508Z,140
2016-08-13T09:09:47.130Z,135
2016-08-13T09:10:46.889Z,120
2016-08-13T09:11:46.836Z,120
2016-08-13T09:12:48.096Z,130
2016-08-13T09:13:48.422Z,60
2016-08-13T09:14:46.012Z,115
2016-08-13T09:15:47.370Z,115
2016-08-13T09:16:46.635Z,120
2016-08-13T09:17:46.961Z,135
2016-08-13T09:18:47.490Z,125
2016-08-13T09:19:47.593Z,95
2016-08-13T09:20:47.131Z,145
2016-08-13T09:21:47.094Z,155
2016-08-13T09:22:47.924Z,85
2016-08-13T09:23:46.924Z,80
2016-08-13T09:24:47.404Z,155
2016-08-13T09:25:46.413Z,85
2016-08-13T09:26:46.892Z,75
2016-08-13T09:27:47.058Z,125
2016-08-13T09:28:46.783Z,135
2016-08-13T09:29:47.159Z,160
2016-08-13T09:30:45.717Z,155
2016-08-13T09:31:46.666Z,170
2016-08-13T09:32:46.090Z,170
2016-08-13T09:33:46.358Z,100
2016-08-13T09:34:46.923Z,160
2016-08-13T09:35:46.581Z,145
2016-08-13T09:36:46.501Z,120
2016-08-13T09:37:46.600Z,155
2016-08-13T09:38:46.361Z,180
2016-08-13T09:39:46.300Z,95
2016-08-13T09:40:46.478Z,90
2016-08-13T09:41:46.207Z,160
2016-08-13T09:42:46.384Z,145
2016-08-13T09:43:45.431Z,170
2016-08-13T09:44:46.287Z,110
2016-08-13T09:45:46.270Z,130
2016-08-13T09:46:46.015Z,155
2016-08-13T09:47:44.787Z,80
2016-08-13T09:48:45.423Z,85
2016-08-13T09:49:44.498Z,110
2016-08-13T09:50:44.487Z,95
2016-08-13T09:51:46.389Z,80
2016-08-13T09:52:45.751Z,150
2016-08-13T09:53:46.423Z,90
2016-08-13T09:54:46.261Z,85
2016-08-13T09:55:46.320Z,165
2016-08-13T09:56:45.632Z,165
2016-08-13T09:57:47.477Z,165
2016-08-13T09:58:44.190Z,155
2016-08-13T09:59:44.104Z,150
2016-08-13T10:00:44.731Z,155
2016-08-13T10:01:45.382Z,140
2016-08-13T10:02:45.393Z,65
2016-08-13T10:03:44.837Z,90
2016-08-13T10:04:44.061Z,60
2016-08-13T10:05:44.903Z,60
2016-08-13T10:06:45.142Z,70
2016-08-13T10:07:45.514Z,145
2016-08-13T10:08:45.082Z,150
2016-08-13T10:09:45.238Z,145
2016-08-13T10:10:45.000Z,135
2016-08-13T10:11:44.239Z,65
2016-08-13T10:12:44.614Z,130
2016-08-13T10:13:44.862Z,125
2016-08-13T10:14:42.408Z,125
2016-08-13T10:15:45.048Z,125
2016-08-13T10:16:45.015Z,120
2016-08-13T10:17:44.283Z,130
2016-08-13T10:18:44.206Z,120
2016-08-13T10:19:44.626Z,125
2016-08-13T10:20:44.864Z,120
2016-08-13T10:21:44.281Z,120
2016-08-13T10:22:44.722Z,125
2016-08-13T10:23:44.010Z,120
2016-08-13T10:24:43.744Z,100
2016-08-13T10:25:42.966Z,120
2016-08-13T10:26:44.508Z,80
2016-08-13T10:27:44.250Z,115
2016-08-13T10:28:44.224Z,125
2016-08-13T10:29:44.194Z,125
2016-08-13T10:30:44.145Z,50
2016-08-13T10:31:44.105Z,115
2016-08-13T10:32:44.059Z,55
2016-08-13T10:33:43.727Z,100
2016-08-13T10:34:44.003Z,110
2016-08-13T10:35:42.741Z,115
2016-08-13T10:36:43.702Z,100
2016-08-13T10:37:43.851Z,115
2016-08-13T10:38:43.480Z,120
2016-08-13T10:39:43.739Z,125
2016-08-13T10:40:43.747Z,110
2016-08-13T10:41:43.869Z,115
2016-08-13T10:42:43.018Z,115
2016-08-13T10:43:43.593Z,120
2016-08-13T10:44:43.531Z,120
2016-08-13T10:45:43.508Z,120
2016-08-13T10:46:43.679Z,115
2016-08-13T10:47:42.709Z,115
2016-08-13T10:48:42.695Z,120
2016-08-13T10:49:42.646Z,115
2016-08-13T10:50:43.269Z,115
2016-08-13T10:51:43.240Z,115
2016-08-13T10:52:43.808Z,120
2016-08-13T10:53:43.637Z,110
2016-08-13T10:54:43.104Z,115
2016-08-13T10:55:43.097Z,110
2016-08-13T10:56:43.022Z,115
2016-08-13T10:57:43.011Z,115
2016-08-13T10:58:42.984Z,65
2016-08-13T10:59:42.414Z,120
2016-08-13T11:00:41.669Z,120
2016-08-13T11:01:41.460Z,120
2016-08-13T11:02:43.029Z,120
2016-08-13T11:03:42.298Z,120
2016-08-13T11:04:42.936Z,115
2016-08-13T11:05:41.967Z,120
2016-08-13T11:06:42.657Z,115
2016-08-13T11:07:42.597Z,105
2016-08-13T11:08:42.546Z,115
2016-08-13T11:09:41.089Z,110
2016-08-13T11:10:41.449Z,110
2016-08-13T11:11:41.924Z,110
2016-08-13T11:12:42.567Z,110
2016-08-13T11:13:42.499Z,110
2016-08-13T11:14:42.274Z,110
2016-08-13T11:15:41.518Z,110
2016-08-13T11:16:42.205Z,110
2016-08-13T11:17:41.448Z,110
2016-08-13T11:18:41.410Z,100
2016-08-13T11:19:42.081Z,120
2016-08-13T11:20:41.533Z,110
2016-08-13T11:21:41.688Z,115
2016-08-13T11:22:41.463Z,95
2016-08-13T11:23:41.897Z,115
2016-08-13T11:24:42.467Z,110
2016-08-13T11:25:41.121Z,110
2016-08-13T11:26:42.000Z,115
2016-08-13T11:27:41.021Z,115
2016-08-13T11:28:41.690Z,120
2016-08-13T11:29:41.158Z,115
2016-08-13T11:30:40.891Z,115
2016-08-13T11:31:42.187Z,115
2016-08-13T11:32:41.522Z,120
2016-08-13T11:33:40.301Z,120
2016-08-13T11:34:40.930Z,125
2016-08-13T11:35:41.402Z,115
2016-08-13T11:36:42.333Z,120
2016-08-13T11:37:41.580Z,125
2016-08-13T11:38:40.278Z,125
2016-08-13T11:39:41.233Z,120
2016-08-13T11:40:41.182Z,65
2016-08-13T11:41:41.324Z,105
2016-08-13T11:42:41.281Z,120
2016-08-13T11:43:41.063Z,125
2016-08-13T11:44:41.001Z,125
2016-08-13T11:45:41.412Z,125
2016-08-13T11:46:41.129Z,90
2016-08-13T11:47:40.874Z,125
2016-08-13T11:48:40.839Z,120
2016-08-13T11:49:40.286Z,120
2016-08-13T11:50:40.953Z,125
2016-08-13T11:51:40.721Z,120
2016-08-13T11:52:39.950Z,120
2016-08-13T11:53:40.614Z,125
2016-08-13T11:54:40.782Z,125
2016-08-13T11:55:40.753Z,125
2016-08-13T11:56:40.712Z,125
2016-08-13T11:57:39.771Z,125
2016-08-13T11:58:40.422Z,125
2016-08-13T11:59:40.374Z,125
2016-08-13T12:00:41.156Z,125
2016-08-13T12:01:39.806Z,120
2016-08-13T12:02:40.295Z,125
2016-08-13T12:03:39.920Z,125
2016-08-13T12:04:40.787Z,120
2016-08-13T12:05:39.430Z,125
2016-08-13T12:06:40.091Z,125
2016-08-13T12:07:40.026Z,130
2016-08-13T12:08:40.193Z,120
2016-08-13T12:09:39.977Z,125
2016-08-13T12:10:40.126Z,130
2016-08-13T12:11:39.907Z,125
2016-08-13T12:12:39.172Z,130
2016-08-13T12:13:39.777Z,125
2016-08-13T12:14:40.336Z,125
2016-08-13T12:15:39.191Z,125
2016-08-13T12:16:39.852Z,130
2016-08-13T12:17:39.628Z,130
2016-08-13T12:18:39.766Z,130
2016-08-13T12:19:39.743Z,135
2016-08-13T12:20:38.814Z,135
2016-08-13T12:21:38.759Z,135
2016-08-13T12:22:39.432Z,135
2016-08-13T12:23:39.375Z,125
2016-08-13T12:24:38.631Z,110
2016-08-13T12:25:39.284Z,105
2016-08-13T12:26:39.443Z,115
2016-08-13T12:27:39.992Z,120
2016-08-13T12:28:39.150Z,120
2016-08-13T12:29:39.579Z,115
2016-08-13T12:30:39.470Z,115
2016-08-13T12:31:39.025Z,125
2016-08-13T12:32:38.293Z,130
2016-08-13T12:33:37.022Z,130
2016-08-13T12:34:38.901Z,130
2016-08-13T12:35:39.074Z,130
2016-08-13T12:36:38.995Z,125
2016-08-13T12:37:38.462Z,130
2016-08-13T12:38:39.133Z,130
2016-08-13T12:39:38.682Z,130
2016-08-13T12:40:38.628Z,135
2016-08-13T12:41:37.892Z,85
2016-08-13T12:42:37.869Z,135
2016-08-13T12:43:38.519Z,130
2016-08-13T12:44:37.791Z,130
2016-08-13T12:45:37.951Z,125
2016-08-13T12:46:38.101Z,130
2016-08-13T12:47:37.659Z,130
2016-08-13T12:48:38.010Z,130
2016-08-13T12:49:38.240Z,125
2016-08-13T12:50:38.211Z,125
2016-08-13T12:51:38.573Z,130
2016-08-13T12:52:38.313Z,130
2016-08-13T12:53:37.585Z,130
2016-08-13T12:54:38.039Z,130
2016-08-13T12:55:38.009Z,125
2016-08-13T12:56:37.954Z,125
2016-08-13T12:57:37.918Z,105
2016-08-13T12:58:37.211Z,105
2016-08-13T12:59:38.446Z,115
2016-08-13T13:00:38.022Z,125
2016-08-13T13:01:38.274Z,125
2016-08-13T13:02:36.383Z,120
2016-08-13T13:03:38.082Z,130
2016-08-13T13:04:37.846Z,130
2016-08-13T13:05:37.484Z,130
2016-08-13T13:06:37.564Z,130
2016-08-13T13:07:37.194Z,135
2016-08-13T13:08:37.473Z,135
2016-08-13T13:09:36.933Z,140
2016-08-13T13:10:36.891Z,140
2016-08-13T13:11:37.033Z,125
2016-08-13T13:12:37.347Z,75
2016-08-13T13:13:37.675Z,140
2016-08-13T13:14:36.522Z,135
2016-08-13T13:15:37.182Z,145
2016-08-13T13:16:37.333Z,145
2016-08-13T13:17:37.114Z,145
2016-08-13T13:18:36.369Z,140
2016-08-13T13:19:37.217Z,140
2016-08-13T13:20:37.213Z,140
2016-08-13T13:21:36.232Z,140
2016-08-13T13:22:37.121Z,140
2016-08-13T13:23:35.460Z,140
2016-08-13T13:24:35.393Z,140
2016-08-13T13:25:36.963Z,140
2016-08-13T13:26:37.337Z,145
2016-08-13T13:27:36.665Z,140
2016-08-13T13:28:35.963Z,145
2016-08-13T13:29:36.611Z,145
2016-08-13T13:30:36.629Z,65
2016-08-13T13:31:36.933Z,75
2016-08-13T13:32:36.512Z,150
2016-08-13T13:33:36.421Z,150
2016-08-13T13:34:35.684Z,135
2016-08-13T13:35:36.553Z,145
2016-08-13T13:36:36.494Z,150
2016-08-13T13:37:36.286Z,150
2016-08-13T13:38:35.522Z,150
2016-08-13T13:39:36.193Z,150
2016-08-13T13:40:35.635Z,145
2016-08-13T13:41:35.388Z,150
2016-08-13T13:42:36.051Z,135
2016-08-13T13:43:36.227Z,125
2016-08-13T13:44:35.964Z,140
2016-08-13T13:45:35.954Z,135
2016-08-13T13:46:36.073Z,130
2016-08-13T13:47:35.153Z,140
2016-08-13T13:48:35.216Z,135
2016-08-13T13:49:35.848Z,145
2016-08-13T13:50:35.720Z,145
2016-08-13T13:51:35.687Z,145
2016-08-13T13:52:35.642Z,145
2016-08-13T13:53:35.594Z,145
2016-08-13T13:54:35.594Z,140
2016-08-13T13:55:35.013Z,130
2016-08-13T13:56:34.780Z,140
2016-08-13T13:57:34.840Z,140
2016-08-13T13:58:35.616Z,145
2016-08-13T13:59:35.763Z,150
2016-08-13T14:00:35.307Z,145
2016-08-13T14:01:34.594Z,145
2016-08-13T14:02:34.555Z,140
2016-08-13T14:03:35.174Z,145
2016-08-13T14:04:34.466Z,150
2016-08-13T14:05:35.135Z,150
2016-08-13T14:06:35.131Z,150
2016-08-13T14:07:34.620Z,80
2016-08-13T14:08:34.988Z,90
2016-08-13T14:09:34.254Z,130
2016-08-13T14:10:34.413Z,145
2016-08-13T14:11:34.402Z,140
2016-08-13T14:12:34.114Z,150
2016-08-13T14:13:34.281Z,155